Time;durP1;ratioP1;P1;durP2;ratioP2;P2;SDS_P1;SDS_P2;PMS_P1;PMS_P2;Temp;Humidity;BMP_temperature;BMP_pressure;BME280_temperature;BME280_humidity;BME280_pressure;Samples;Min_cycle;Max_cycle;Signal;HPM_P1;HPM_P2
2021/01/23 00:02:16;;;;;;;11.17;8.10;;;;;;;;;;5011661;28;20435;-73
2021/01/23 00:04:42;;;;;;;11.83;7.60;;;;;;;;;;5013800;28;20452;-73
2021/01/23 00:07:09;;;;;;;9.20;6.50;;;;;;;;;;5013807;28;20496;-73
2021/01/23 00:09:34;;;;;;;13.80;8.20;;;;;;;;;;5012899;28;20563;-73
2021/01/23 00:12:00;;;;;;;11.97;8.10;;;;;;;;;;5014394;28;20437;-73
2021/01/23 00:14:27;;;;;;;12.63;8.30;;;;;;;;;;5013552;28;20850;-73
2021/01/23 00:16:53;;;;;;;13.43;9.03;;;;;;;;;;5014232;28;20498;-73
2021/01/23 00:19:19;;;;;;;9.50;7.40;;;;;;;;;;5012954;28;20525;-74
2021/01/23 00:21:45;;;;;;;11.10;7.90;;;;;;;;;;5014207;28;20847;-73
2021/01/23 00:24:11;;;;;;;12.80;8.37;;;;;;;;;;5013498;28;20919;-73
2021/01/23 00:26:37;;;;;;;13.47;8.37;;;;;;;;;;5013854;28;20969;-73
2021/01/23 00:29:03;;;;;;;15.70;8.90;;;;;;;;;;5013039;28;20461;-74
2021/01/23 00:31:29;;;;;;;17.20;9.50;;;;;;;;;;5014133;28;20409;-74
2021/01/23 00:33:55;;;;;;;12.57;8.47;;;;;;;;;;5013423;28;20428;-73
2021/01/23 00:36:21;;;;;;;11.50;8.00;;;;;;;;;;5012437;28;20424;-73
2021/01/23 00:38:47;;;;;;;12.97;8.30;;;;;;;;;;5013193;28;20987;-73
2021/01/23 00:41:13;;;;;;;12.20;8.97;;;;;;;;;;5013790;28;20404;-73
2021/01/23 00:43:39;;;;;;;11.80;7.80;;;;;;;;;;5012783;28;21009;-73
2021/01/23 00:46:05;;;;;;;12.40;9.03;;;;;;;;;;5013573;28;20508;-73
2021/01/23 00:48:31;;;;;;;15.20;9.90;;;;;;;;;;5011120;28;20525;-73
2021/01/23 00:50:57;;;;;;;13.77;9.30;;;;;;;;;;5013631;28;20427;-73
2021/01/23 00:53:23;;;;;;;13.10;9.70;;;;;;;;;;5013289;28;20893;-73
2021/01/23 00:55:49;;;;;;;13.93;9.87;;;;;;;;;;5012905;28;20418;-73
2021/01/23 00:58:15;;;;;;;15.47;9.00;;;;;;;;;;5013496;28;20450;-73
2021/01/23 01:00:41;;;;;;;12.07;9.10;;;;;;;;;;5008851;28;20428;-73
2021/01/23 01:03:07;;;;;;;15.07;9.03;;;;;;;;;;4993837;28;20400;-73
2021/01/23 01:05:33;;;;;;;14.50;10.70;;;;;;;;;;4996314;28;20503;-73
2021/01/23 01:07:59;;;;;;;15.30;9.47;;;;;;;;;;5011298;28;20406;-74
2021/01/23 01:10:25;;;;;;;17.37;9.53;;;;;;;;;;4999638;28;20466;-73
2021/01/23 01:12:51;;;;;;;12.50;9.40;;;;;;;;;;5013345;28;20832;-73
2021/01/23 01:15:17;;;;;;;15.40;10.00;;;;;;;;;;5012709;28;20453;-73
2021/01/23 01:17:43;;;;;;;12.73;10.30;;;;;;;;;;5013039;28;20832;-73
2021/01/23 01:20:09;;;;;;;17.30;10.23;;;;;;;;;;4999486;28;20453;-73
2021/01/23 01:22:35;;;;;;;14.83;10.97;;;;;;;;;;4992276;28;20432;-73
2021/01/23 01:25:01;;;;;;;15.47;9.70;;;;;;;;;;4993087;28;20434;-73
2021/01/23 01:27:27;;;;;;;18.97;10.80;;;;;;;;;;5005625;28;20538;-73
2021/01/23 01:29:53;;;;;;;16.47;11.90;;;;;;;;;;5012810;28;20453;-73
2021/01/23 01:32:19;;;;;;;19.90;10.90;;;;;;;;;;5013012;28;20772;-73
2021/01/23 01:34:45;;;;;;;17.27;10.20;;;;;;;;;;5012288;28;20427;-73
2021/01/23 01:37:11;;;;;;;14.80;10.37;;;;;;;;;;5012853;28;20427;-73
2021/01/23 01:39:37;;;;;;;16.13;10.03;;;;;;;;;;5011898;28;20794;-73
2021/01/23 01:42:04;;;;;;;10.53;8.43;;;;;;;;;;5011368;28;20429;-73
2021/01/23 01:44:30;;;;;;;15.90;10.37;;;;;;;;;;5011903;28;20432;-73
2021/01/23 01:46:58;;;;;;;13.37;9.33;;;;;;;;;;5013774;28;20854;-73
2021/01/23 01:49:24;;;;;;;11.43;8.80;;;;;;;;;;5016493;28;20516;-73
2021/01/23 01:51:52;;;;;;;12.60;8.47;;;;;;;;;;5017100;28;20396;-73
2021/01/23 01:54:18;;;;;;;15.63;9.43;;;;;;;;;;5014642;28;20489;-73
2021/01/23 01:56:44;;;;;;;13.70;9.23;;;;;;;;;;5017026;28;20459;-73
2021/01/23 01:59:11;;;;;;;11.57;8.50;;;;;;;;;;5015259;28;20925;-73
2021/01/23 02:01:38;;;;;;;11.83;7.90;;;;;;;;;;5016692;28;20404;-73
2021/01/23 02:04:36;;;;;;;10.90;7.83;;;;;;;;;;5013708;28;20526;-73
2021/01/23 02:07:02;;;;;;;7.73;5.30;;;;;;;;;;4995906;28;20795;-73
2021/01/23 02:09:28;;;;;;;8.70;5.37;;;;;;;;;;5007805;28;20504;-73
2021/01/23 02:12:09;;;;;;;6.80;4.30;;;;;;;;;;4995734;28;20500;-73
2021/01/23 02:14:42;;;;;;;5.33;3.50;;;;;;;;;;4997315;28;20426;-73
2021/01/23 02:17:10;;;;;;;4.03;3.00;;;;;;;;;;5005130;28;20428;-73
2021/01/23 02:20:02;;;;;;;3.17;2.50;;;;;;;;;;5015850;28;20449;-73
2021/01/23 02:22:43;;;;;;;3.23;2.40;;;;;;;;;;5016704;28;20401;-73
2021/01/23 02:25:11;;;;;;;2.80;2.30;;;;;;;;;;5014459;28;20426;-73
2021/01/23 02:27:56;;;;;;;3.13;2.30;;;;;;;;;;5015782;28;20438;-73
2021/01/23 02:30:24;;;;;;;2.97;2.17;;;;;;;;;;5010610;28;20548;-73
2021/01/23 02:32:53;;;;;;;2.70;2.10;;;;;;;;;;5016220;28;20402;-73
2021/01/23 02:35:20;;;;;;;2.50;2.00;;;;;;;;;;5015456;28;20430;-73
2021/01/23 02:37:47;;;;;;;3.20;2.07;;;;;;;;;;5016552;28;20545;-73
2021/01/23 02:40:13;;;;;;;5.03;2.23;;;;;;;;;;5015408;28;21063;-73
2021/01/23 02:42:39;;;;;;;8.90;2.50;;;;;;;;;;5014813;28;20417;-73
2021/01/23 02:45:07;;;;;;;2.90;2.13;;;;;;;;;;5010941;28;20444;-73
2021/01/23 02:47:33;;;;;;;4.27;2.10;;;;;;;;;;4996639;28;20506;-73
2021/01/23 02:49:59;;;;;;;3.10;2.07;;;;;;;;;;4998877;28;20514;-73
2021/01/23 02:52:48;;;;;;;3.73;2.17;;;;;;;;;;5016638;28;20500;-73
2021/01/23 02:55:16;;;;;;;2.67;1.77;;;;;;;;;;5007125;28;20436;-73
2021/01/23 02:57:43;;;;;;;2.20;1.87;;;;;;;;;;5003277;28;20894;-73
2021/01/23 03:00:10;;;;;;;3.13;2.07;;;;;;;;;;4998967;28;20937;-73
2021/01/23 03:02:38;;;;;;;2.00;1.73;;;;;;;;;;4996446;28;20466;-73
2021/01/23 03:05:04;;;;;;;1.90;1.40;;;;;;;;;;5000739;28;20514;-73
2021/01/23 03:07:30;;;;;;;2.53;1.80;;;;;;;;;;4996310;28;20817;-73
2021/01/23 03:09:56;;;;;;;2.60;1.90;;;;;;;;;;4996068;28;20506;-73
2021/01/23 03:12:22;;;;;;;2.13;1.67;;;;;;;;;;4995815;28;20411;-73
2021/01/23 03:14:48;;;;;;;2.50;1.80;;;;;;;;;;4998238;28;20887;-73
2021/01/23 03:17:14;;;;;;;2.03;1.60;;;;;;;;;;5015580;28;20420;-73
2021/01/23 03:19:40;;;;;;;1.60;1.10;;;;;;;;;;5008735;28;20962;-73
2021/01/23 03:22:06;;;;;;;2.93;1.33;;;;;;;;;;5014779;28;20431;-73
2021/01/23 03:24:32;;;;;;;1.97;1.30;;;;;;;;;;5015304;28;20773;-73
2021/01/23 03:26:58;;;;;;;1.93;1.53;;;;;;;;;;4997057;28;20434;-73
2021/01/23 03:29:24;;;;;;;1.90;1.23;;;;;;;;;;5010224;28;21017;-73
2021/01/23 03:31:50;;;;;;;1.63;1.20;;;;;;;;;;5014230;28;20766;-74
2021/01/23 03:34:17;;;;;;;1.50;1.00;;;;;;;;;;5015353;28;20891;-73
2021/01/23 03:36:43;;;;;;;1.70;1.10;;;;;;;;;;5014344;28;20457;-74
2021/01/23 03:39:10;;;;;;;1.83;1.37;;;;;;;;;;5014235;28;20951;-74
2021/01/23 03:41:36;;;;;;;2.17;1.40;;;;;;;;;;5013208;28;20461;-74
2021/01/23 03:44:02;;;;;;;1.60;1.20;;;;;;;;;;5014677;28;20482;-73
2021/01/23 03:46:28;;;;;;;1.53;0.90;;;;;;;;;;5014455;28;20431;-73
2021/01/23 03:48:54;;;;;;;1.63;1.13;;;;;;;;;;5014734;28;20462;-74
2021/01/23 03:51:20;;;;;;;1.60;1.30;;;;;;;;;;5014229;28;20426;-73
2021/01/23 03:53:46;;;;;;;1.30;0.80;;;;;;;;;;5013455;28;20467;-74
2021/01/23 03:56:12;;;;;;;1.60;1.00;;;;;;;;;;5011353;28;20509;-74
2021/01/23 03:58:38;;;;;;;1.40;1.00;;;;;;;;;;5014614;28;20453;-73
2021/01/23 04:01:04;;;;;;;1.57;1.23;;;;;;;;;;5012629;28;21068;-72
2021/01/23 04:03:30;;;;;;;2.00;1.23;;;;;;;;;;5013456;28;20423;-72
2021/01/23 04:05:56;;;;;;;1.30;1.00;;;;;;;;;;5012293;28;20499;-72
2021/01/23 04:08:23;;;;;;;1.40;1.00;;;;;;;;;;5014336;28;20444;-73
2021/01/23 04:10:49;;;;;;;1.40;1.00;;;;;;;;;;5012745;28;20531;-72
2021/01/23 04:13:15;;;;;;;2.30;1.30;;;;;;;;;;5014339;28;20442;-72
2021/01/23 04:15:40;;;;;;;1.50;1.20;;;;;;;;;;5013228;28;20428;-72
2021/01/23 04:18:07;;;;;;;1.87;1.30;;;;;;;;;;5014214;28;20403;-72
2021/01/23 04:20:33;;;;;;;1.30;0.90;;;;;;;;;;5013104;28;20446;-73
2021/01/23 04:22:59;;;;;;;1.90;1.40;;;;;;;;;;5014336;28;20407;-73
2021/01/23 04:25:26;;;;;;;1.47;1.00;;;;;;;;;;5012911;28;20450;-72
2021/01/23 04:27:52;;;;;;;1.33;0.97;;;;;;;;;;5013955;28;20402;-72
2021/01/23 04:30:18;;;;;;;1.23;0.90;;;;;;;;;;5013221;28;20477;-72
2021/01/23 04:32:44;;;;;;;1.30;0.90;;;;;;;;;;4994445;28;20415;-72
2021/01/23 04:35:10;;;;;;;1.30;1.00;;;;;;;;;;4997153;28;20477;-72
2021/01/23 04:37:40;;;;;;;1.30;1.00;;;;;;;;;;5011716;28;20438;-72
2021/01/23 04:40:07;;;;;;;1.27;0.90;;;;;;;;;;5012378;28;20462;-72
2021/01/23 04:42:33;;;;;;;1.30;1.00;;;;;;;;;;5012769;28;20431;-72
2021/01/23 04:44:59;;;;;;;1.63;1.00;;;;;;;;;;5012565;28;20826;-72
2021/01/23 04:47:26;;;;;;;1.63;1.10;;;;;;;;;;5012105;28;20952;-72
2021/01/23 04:49:51;;;;;;;1.50;1.00;;;;;;;;;;5013894;28;20466;-72
2021/01/23 04:52:18;;;;;;;1.57;1.00;;;;;;;;;;5011502;28;20943;-72
2021/01/23 04:54:44;;;;;;;2.77;1.10;;;;;;;;;;5013774;28;20449;-72
2021/01/23 04:57:10;;;;;;;2.23;1.23;;;;;;;;;;5010511;28;20428;-72
2021/01/23 04:59:36;;;;;;;1.30;0.87;;;;;;;;;;5013245;28;20517;-72
2021/01/23 05:02:18;;;;;;;1.30;0.80;;;;;;;;;;5011575;28;20837;-72
2021/01/23 05:04:48;;;;;;;1.60;1.00;;;;;;;;;;5012159;28;20544;-72
2021/01/23 05:07:34;;;;;;;1.53;0.97;;;;;;;;;;5012030;28;20926;-73
2021/01/23 05:10:19;;;;;;;1.30;0.90;;;;;;;;;;5036167;23;21016;-72
2021/01/23 05:12:45;;;;;;;1.30;0.80;;;;;;;;;;5012897;28;20429;-73
2021/01/23 05:15:31;;;;;;;1.30;0.87;;;;;;;;;;5013330;28;20502;-74
2021/01/23 05:17:59;;;;;;;1.60;1.10;;;;;;;;;;5012526;28;20507;-73
2021/01/23 05:20:30;;;;;;;1.30;0.93;;;;;;;;;;5013210;28;20451;-73
2021/01/23 05:22:57;;;;;;;1.50;1.20;;;;;;;;;;5013282;28;20445;-73
2021/01/23 05:25:30;;;;;;;1.30;0.90;;;;;;;;;;5010888;28;20845;-74
2021/01/23 05:27:57;;;;;;;1.30;0.97;;;;;;;;;;5011946;28;20436;-73
2021/01/23 05:30:23;;;;;;;1.30;1.00;;;;;;;;;;5013374;28;20818;-73
2021/01/23 05:33:09;;;;;;;1.40;1.00;;;;;;;;;;5012147;28;20437;-73
2021/01/23 05:35:35;;;;;;;1.40;0.90;;;;;;;;;;5013138;28;20400;-73
2021/01/23 05:38:17;;;;;;;1.50;1.00;;;;;;;;;;5012154;28;20786;-73
2021/01/23 05:40:44;;;;;;;1.60;1.00;;;;;;;;;;5012462;28;20397;-73
2021/01/23 05:43:10;;;;;;;4.40;1.20;;;;;;;;;;4993520;28;20405;-73
2021/01/23 05:45:36;;;;;;;1.47;1.10;;;;;;;;;;5006716;28;20423;-73
2021/01/23 05:48:11;;;;;;;1.30;1.00;;;;;;;;;;5021806;28;20416;-73
2021/01/23 05:50:37;;;;;;;1.50;1.00;;;;;;;;;;5027803;28;20419;-73
2021/01/23 05:53:03;;;;;;;1.50;0.97;;;;;;;;;;5007430;28;20420;-73
2021/01/23 05:55:29;;;;;;;1.50;1.17;;;;;;;;;;5003047;28;20404;-74
2021/01/23 05:57:56;;;;;;;1.37;1.10;;;;;;;;;;5019940;28;20502;-73
2021/01/23 06:00:23;;;;;;;2.30;1.30;;;;;;;;;;5017398;28;20426;-73
2021/01/23 06:02:49;;;;;;;1.80;1.17;;;;;;;;;;5012251;28;20427;-73
2021/01/23 06:05:15;;;;;;;1.83;1.10;;;;;;;;;;5012747;28;20440;-73
2021/01/23 06:07:43;;;;;;;1.57;1.20;;;;;;;;;;5011503;28;21028;-73
2021/01/23 06:10:24;;;;;;;1.70;1.40;;;;;;;;;;5012248;28;20475;-73
2021/01/23 06:12:50;;;;;;;1.77;1.43;;;;;;;;;;5011922;28;20429;-73
2021/01/23 06:15:35;;;;;;;1.70;1.10;;;;;;;;;;5013188;28;20928;-73
2021/01/23 06:18:05;;;;;;;1.67;1.07;;;;;;;;;;5010025;28;20487;-73
2021/01/23 06:20:47;;;;;;;1.50;1.10;;;;;;;;;;5012818;28;20437;-73
2021/01/23 06:23:16;;;;;;;1.60;1.40;;;;;;;;;;5012198;28;20942;-73
2021/01/23 06:25:51;;;;;;;1.40;1.17;;;;;;;;;;5013015;28;20416;-73
2021/01/23 06:28:17;;;;;;;1.90;1.30;;;;;;;;;;5011655;28;20426;-74
2021/01/23 06:30:43;;;;;;;1.80;1.60;;;;;;;;;;5013183;28;20467;-73
2021/01/23 06:33:24;;;;;;;1.60;1.40;;;;;;;;;;5013571;28;20789;-73
2021/01/23 06:36:02;;;;;;;1.57;1.33;;;;;;;;;;5016462;28;20488;-73
2021/01/23 06:38:29;;;;;;;3.90;1.80;;;;;;;;;;5015960;28;20516;-73
2021/01/23 06:40:55;;;;;;;1.80;1.20;;;;;;;;;;5016365;28;20427;-73
2021/01/23 06:43:21;;;;;;;2.40;1.53;;;;;;;;;;5015051;28;20436;-73
2021/01/23 06:45:47;;;;;;;2.20;1.73;;;;;;;;;;5016176;28;20402;-73
2021/01/23 06:48:13;;;;;;;4.90;1.60;;;;;;;;;;5014842;28;20499;-73
2021/01/23 06:50:40;;;;;;;1.40;1.13;;;;;;;;;;5015830;28;20473;-73
2021/01/23 06:53:07;;;;;;;2.33;1.50;;;;;;;;;;5014661;28;20493;-73
2021/01/23 06:55:40;;;;;;;1.57;1.40;;;;;;;;;;5015885;28;20426;-73
2021/01/23 06:58:16;;;;;;;2.00;1.70;;;;;;;;;;5015056;28;20429;-73
2021/01/23 07:00:42;;;;;;;2.03;1.50;;;;;;;;;;5015596;28;20476;-73
2021/01/23 07:03:13;;;;;;;1.60;1.20;;;;;;;;;;5014378;28;20466;-74
2021/01/23 07:05:46;;;;;;;1.90;1.30;;;;;;;;;;4996355;28;20415;-73
2021/01/23 07:08:25;;;;;;;2.07;1.60;;;;;;;;;;5012220;28;20794;-73
2021/01/23 07:11:10;;;;;;;1.50;1.40;;;;;;;;;;5016113;28;20494;-73
2021/01/23 07:13:37;;;;;;;5.10;1.23;;;;;;;;;;5015277;28;20434;-73
2021/01/23 07:16:04;;;;;;;2.63;1.70;;;;;;;;;;5015910;28;20399;-73
2021/01/23 07:18:30;;;;;;;2.93;1.70;;;;;;;;;;5014725;28;20540;-73
2021/01/23 07:20:56;;;;;;;1.50;1.27;;;;;;;;;;5015380;28;20765;-73
2021/01/23 07:23:23;;;;;;;1.90;1.53;;;;;;;;;;5010832;28;20919;-73
2021/01/23 07:25:49;;;;;;;2.70;1.60;;;;;;;;;;5014235;28;20432;-73
2021/01/23 07:28:21;;;;;;;1.60;1.40;;;;;;;;;;5014269;28;20480;-73
2021/01/23 07:30:48;;;;;;;2.20;1.53;;;;;;;;;;5014973;28;20419;-73
2021/01/23 07:33:32;;;;;;;2.07;1.27;;;;;;;;;;5014172;28;20423;-73
2021/01/23 07:35:58;;;;;;;2.27;1.57;;;;;;;;;;5015007;28;20411;-73
2021/01/23 07:38:25;;;;;;;1.77;1.43;;;;;;;;;;5014061;28;20928;-73
2021/01/23 07:40:53;;;;;;;1.93;1.50;;;;;;;;;;5015069;28;20416;-73
2021/01/23 07:43:19;;;;;;;4.73;1.73;;;;;;;;;;5013790;28;20432;-73
2021/01/23 07:45:45;;;;;;;2.37;1.60;;;;;;;;;;5014072;28;20906;-73
2021/01/23 07:48:11;;;;;;;1.93;1.50;;;;;;;;;;5014245;28;20419;-73
2021/01/23 07:50:39;;;;;;;1.90;1.50;;;;;;;;;;5014755;28;20468;-73
2021/01/23 07:53:14;;;;;;;1.90;1.40;;;;;;;;;;5013977;28;20439;-73
2021/01/23 07:55:40;;;;;;;2.13;1.53;;;;;;;;;;5014980;28;20410;-73
2021/01/23 07:58:07;;;;;;;8.50;2.10;;;;;;;;;;5013226;28;20434;-74
2021/01/23 08:00:34;;;;;;;2.50;1.80;;;;;;;;;;5012483;28;20486;-74
2021/01/23 08:03:00;;;;;;;1.83;1.50;;;;;;;;;;5013840;28;20783;-73
2021/01/23 08:05:42;;;;;;;2.63;1.60;;;;;;;;;;5013365;28;20427;-74
2021/01/23 08:08:08;;;;;;;2.40;1.50;;;;;;;;;;5013459;28;20437;-73
2021/01/23 08:10:38;;;;;;;2.73;2.10;;;;;;;;;;5014023;28;20469;-73
2021/01/23 08:13:05;;;;;;;2.97;2.10;;;;;;;;;;5013680;28;20424;-73
2021/01/23 08:15:38;;;;;;;1.80;1.40;;;;;;;;;;5014272;28;20500;-74
2021/01/23 08:18:15;;;;;;;2.40;1.80;;;;;;;;;;5013479;28;20423;-74
2021/01/23 08:20:41;;;;;;;2.67;1.67;;;;;;;;;;5014693;28;20403;-74
2021/01/23 08:23:14;;;;;;;2.10;1.80;;;;;;;;;;5013276;28;20431;-74
2021/01/23 08:25:48;;;;;;;2.83;1.97;;;;;;;;;;5014310;28;20399;-74
2021/01/23 08:28:15;;;;;;;2.60;1.90;;;;;;;;;;5010351;28;20487;-74
2021/01/23 08:30:42;;;;;;;3.03;2.30;;;;;;;;;;5014019;28;20475;-74
2021/01/23 08:33:09;;;;;;;2.27;1.97;;;;;;;;;;5011768;28;20447;-74
2021/01/23 08:35:36;;;;;;;2.33;1.70;;;;;;;;;;5013924;28;20422;-74
2021/01/23 08:38:02;;;;;;;3.10;1.70;;;;;;;;;;5018366;28;20891;-72
2021/01/23 08:40:28;;;;;;;3.50;2.37;;;;;;;;;;5020116;28;20800;-70
2021/01/23 08:42:54;;;;;;;2.30;1.97;;;;;;;;;;5018503;28;20430;-74
2021/01/23 08:45:21;;;;;;;2.23;1.70;;;;;;;;;;5019079;28;20425;-75
2021/01/23 08:47:47;;;;;;;2.50;1.80;;;;;;;;;;5021867;28;20960;-73
2021/01/23 08:50:14;;;;;;;3.93;2.97;;;;;;;;;;5014495;28;20467;-69
2021/01/23 08:52:40;;;;;;;2.53;2.20;;;;;;;;;;5011981;28;20946;-74
2021/01/23 08:55:07;;;;;;;2.50;2.20;;;;;;;;;;5013614;28;20483;-74
2021/01/23 08:57:33;;;;;;;4.00;1.93;;;;;;;;;;5012589;28;20998;-74
2021/01/23 08:59:59;;;;;;;2.70;2.20;;;;;;;;;;5016378;28;20431;-74
2021/01/23 09:02:25;;;;;;;6.47;1.83;;;;;;;;;;5015531;28;20414;-70
2021/01/23 09:04:51;;;;;;;5.20;2.13;;;;;;;;;;5013434;28;20424;-69
2021/01/23 09:07:18;;;;;;;3.20;2.13;;;;;;;;;;5033431;28;20414;-71
2021/01/23 09:09:44;;;;;;;2.90;2.60;;;;;;;;;;5012804;28;20464;-72
2021/01/23 09:12:10;;;;;;;2.00;1.80;;;;;;;;;;5024662;28;20498;-74
2021/01/23 09:14:36;;;;;;;3.17;2.43;;;;;;;;;;5016215;28;20775;-74
2021/01/23 09:17:02;;;;;;;4.13;2.67;;;;;;;;;;5014445;28;20426;-74
2021/01/23 09:19:28;;;;;;;2.60;2.20;;;;;;;;;;5014840;28;20482;-74
2021/01/23 09:21:54;;;;;;;3.00;1.67;;;;;;;;;;5025192;28;20509;-73
2021/01/23 09:24:20;;;;;;;3.17;2.37;;;;;;;;;;5017473;28;20418;-74
2021/01/23 09:26:47;;;;;;;2.87;2.03;;;;;;;;;;5015039;28;20446;-75
2021/01/23 09:29:13;;;;;;;2.30;1.83;;;;;;;;;;5015657;28;20462;-72
2021/01/23 09:31:39;;;;;;;3.13;2.60;;;;;;;;;;5021759;28;20468;-73
2021/01/23 09:34:05;;;;;;;3.27;1.93;;;;;;;;;;5018018;28;20432;-75
2021/01/23 09:36:32;;;;;;;3.20;2.20;;;;;;;;;;5026836;28;20947;-73
2021/01/23 09:38:58;;;;;;;2.20;1.70;;;;;;;;;;5020162;28;20454;-72
2021/01/23 09:41:24;;;;;;;2.67;2.10;;;;;;;;;;5010664;28;20512;-74
2021/01/23 09:43:50;;;;;;;2.70;1.87;;;;;;;;;;5015878;28;20436;-70
2021/01/23 09:46:16;;;;;;;2.60;1.73;;;;;;;;;;5017629;28;20416;-69
2021/01/23 09:48:42;;;;;;;2.90;2.00;;;;;;;;;;5016857;28;20472;-75
2021/01/23 09:51:08;;;;;;;2.10;1.90;;;;;;;;;;5004531;28;21053;-73
2021/01/23 09:53:34;;;;;;;3.20;1.93;;;;;;;;;;5010581;28;20909;-72
2021/01/23 09:56:00;;;;;;;3.60;2.30;;;;;;;;;;5016703;28;20431;-72
2021/01/23 09:58:26;;;;;;;2.57;2.23;;;;;;;;;;5013424;28;20424;-72
2021/01/23 10:00:52;;;;;;;2.67;2.10;;;;;;;;;;5021220;28;20514;-78
2021/01/23 10:03:18;;;;;;;3.53;2.03;;;;;;;;;;5017938;28;20413;-72
2021/01/23 10:05:45;;;;;;;3.47;2.30;;;;;;;;;;5022311;28;20410;-72
2021/01/23 10:08:11;;;;;;;3.10;2.33;;;;;;;;;;5015033;28;20885;-73
2021/01/23 10:10:37;;;;;;;2.50;2.20;;;;;;;;;;5016192;28;20547;-72
2021/01/23 10:13:03;;;;;;;3.57;2.47;;;;;;;;;;5016844;28;20436;-73
2021/01/23 10:15:32;;;;;;;3.88;2.78;;;;;;;;;;5017655;28;20446;-72
2021/01/23 10:17:58;;;;;;;2.60;2.23;;;;;;;;;;5027196;28;20187;-74
2021/01/23 10:20:24;;;;;;;4.33;2.97;;;;;;;;;;5019638;28;20998;-71
2021/01/23 10:22:50;;;;;;;5.57;3.30;;;;;;;;;;5015085;28;20423;-74
2021/01/23 10:25:17;;;;;;;3.50;2.67;;;;;;;;;;5023368;28;20421;-75
2021/01/23 10:27:43;;;;;;;3.60;2.80;;;;;;;;;;5023463;28;20452;-73
2021/01/23 10:30:10;;;;;;;3.70;2.70;;;;;;;;;;5032436;28;20817;-73
2021/01/23 10:32:36;;;;;;;3.90;3.30;;;;;;;;;;5007005;28;20424;-71
2021/01/23 10:35:02;;;;;;;4.37;3.07;;;;;;;;;;5022786;28;20505;-71
2021/01/23 10:37:28;;;;;;;3.30;2.53;;;;;;;;;;5029146;28;20459;-70
2021/01/23 10:39:54;;;;;;;4.20;3.23;;;;;;;;;;5022790;28;20433;-71
2021/01/23 10:42:20;;;;;;;4.00;2.63;;;;;;;;;;5016571;28;20431;-70
2021/01/23 10:44:46;;;;;;;4.93;3.67;;;;;;;;;;5026334;28;20417;-73
2021/01/23 10:47:13;;;;;;;4.40;3.37;;;;;;;;;;5024863;28;20429;-72
2021/01/23 10:49:39;;;;;;;6.93;3.30;;;;;;;;;;5015766;28;20969;-71
2021/01/23 10:52:05;;;;;;;4.60;3.30;;;;;;;;;;5015558;28;20432;-74
2021/01/23 10:54:31;;;;;;;5.40;2.90;;;;;;;;;;5017728;28;20505;-70
2021/01/23 10:56:57;;;;;;;5.80;3.53;;;;;;;;;;5015162;28;20428;-74
2021/01/23 10:59:23;;;;;;;4.00;2.80;;;;;;;;;;5014404;28;20483;-72
2021/01/23 11:01:49;;;;;;;3.80;3.20;;;;;;;;;;5019144;28;20513;-74
2021/01/23 11:04:15;;;;;;;5.10;3.60;;;;;;;;;;5014886;28;20515;-69
2021/01/23 11:06:42;;;;;;;4.50;3.20;;;;;;;;;;5016254;28;20420;-74
2021/01/23 11:09:08;;;;;;;4.17;3.27;;;;;;;;;;5033232;28;20666;-71
2021/01/23 11:11:34;;;;;;;5.43;3.53;;;;;;;;;;5014439;28;20432;-71
2021/01/23 11:14:01;;;;;;;4.37;3.07;;;;;;;;;;5029390;28;20410;-73
2021/01/23 11:16:27;;;;;;;3.80;3.23;;;;;;;;;;5016684;28;21029;-73
2021/01/23 11:18:54;;;;;;;5.00;4.10;;;;;;;;;;5017206;28;20502;-73
2021/01/23 11:21:20;;;;;;;6.63;3.47;;;;;;;;;;5014838;28;20478;-71
2021/01/23 11:23:46;;;;;;;5.53;3.67;;;;;;;;;;5029048;28;20419;-69
2021/01/23 11:26:12;;;;;;;5.20;4.03;;;;;;;;;;5036219;28;20401;-74
2021/01/23 11:28:39;;;;;;;5.13;3.47;;;;;;;;;;5029845;28;20489;-70
2021/01/23 11:31:05;;;;;;;3.93;3.30;;;;;;;;;;5016113;28;20421;-72
2021/01/23 11:33:31;;;;;;;7.20;4.10;;;;;;;;;;5010078;28;20508;-72
2021/01/23 11:35:57;;;;;;;6.33;3.73;;;;;;;;;;5015243;28;20912;-72
2021/01/23 11:38:23;;;;;;;5.07;3.37;;;;;;;;;;5017329;28;20430;-71
2021/01/23 11:40:49;;;;;;;5.70;3.10;;;;;;;;;;5021656;28;20466;-72
2021/01/23 11:43:15;;;;;;;3.90;3.20;;;;;;;;;;5022021;28;20485;-71
2021/01/23 11:45:42;;;;;;;5.83;3.73;;;;;;;;;;5018331;28;20415;-72
2021/01/23 11:48:08;;;;;;;7.30;3.80;;;;;;;;;;5020672;28;20550;-70
2021/01/23 11:50:34;;;;;;;4.97;3.30;;;;;;;;;;5022258;28;20453;-70
2021/01/23 11:53:00;;;;;;;3.87;2.93;;;;;;;;;;5026104;28;20417;-69
2021/01/23 11:55:27;;;;;;;4.47;3.03;;;;;;;;;;5021108;28;20423;-70
2021/01/23 11:57:52;;;;;;;3.77;2.90;;;;;;;;;;5025925;28;20536;-71
2021/01/23 12:00:19;;;;;;;4.67;3.00;;;;;;;;;;5025397;28;20445;-70
2021/01/23 12:02:45;;;;;;;4.00;2.80;;;;;;;;;;5019195;28;20568;-70
2021/01/23 12:05:18;;;;;;;3.77;2.90;;;;;;;;;;5026391;28;20418;-70
2021/01/23 12:07:44;;;;;;;4.50;3.30;;;;;;;;;;5028632;28;20934;-71
2021/01/23 12:10:11;;;;;;;5.17;2.60;;;;;;;;;;5016047;28;20470;-73
2021/01/23 12:12:37;;;;;;;4.20;3.40;;;;;;;;;;5014226;28;20472;-71
2021/01/23 12:15:03;;;;;;;4.60;2.90;;;;;;;;;;5020276;28;20409;-74
2021/01/23 12:17:29;;;;;;;5.33;3.23;;;;;;;;;;5027884;28;20449;-70
2021/01/23 12:19:55;;;;;;;3.60;3.03;;;;;;;;;;5020525;28;20428;-73
2021/01/23 12:22:21;;;;;;;3.85;2.90;;;;;;;;;;5015316;28;20510;-71
2021/01/23 12:24:47;;;;;;;4.30;2.87;;;;;;;;;;5018267;28;20206;-73
2021/01/23 12:27:13;;;;;;;3.80;3.20;;;;;;;;;;5017447;28;20409;-71
2021/01/23 12:29:39;;;;;;;4.37;2.70;;;;;;;;;;5014030;28;20473;-71
2021/01/23 12:32:08;;;;;;;4.73;2.77;;;;;;;;;;5017236;28;20406;-70
2021/01/23 12:34:33;;;;;;;2.97;2.33;;;;;;;;;;5026791;28;20443;-71
2021/01/23 12:36:59;;;;;;;4.17;3.70;;;;;;;;;;5020301;28;20479;-70
2021/01/23 12:39:25;;;;;;;6.17;3.00;;;;;;;;;;5019316;28;20426;-71
2021/01/23 12:41:52;;;;;;;4.60;3.50;;;;;;;;;;5017255;28;20422;-70
2021/01/23 12:44:18;;;;;;;4.03;3.17;;;;;;;;;;5025831;28;20424;-71
2021/01/23 12:46:45;;;;;;;3.70;2.37;;;;;;;;;;5028117;28;20405;-70
2021/01/23 12:49:11;;;;;;;5.13;3.00;;;;;;;;;;5019651;28;20471;-75
2021/01/23 12:51:37;;;;;;;4.53;2.80;;;;;;;;;;5017220;28;20420;-73
2021/01/23 12:54:03;;;;;;;3.63;2.60;;;;;;;;;;5011509;28;20429;-73
2021/01/23 12:56:29;;;;;;;5.07;2.73;;;;;;;;;;5013823;28;20406;-74
2021/01/23 12:58:55;;;;;;;4.17;3.20;;;;;;;;;;5009492;28;20448;-73
2021/01/23 13:01:21;;;;;;;9.63;2.20;;;;;;;;;;5011814;28;20935;-74
2021/01/23 13:03:47;;;;;;;2.93;2.50;;;;;;;;;;5012026;28;20431;-73
2021/01/23 13:06:13;;;;;;;3.17;2.00;;;;;;;;;;5013495;28;20428;-74
2021/01/23 13:08:40;;;;;;;3.40;2.43;;;;;;;;;;5012388;28;20904;-73
2021/01/23 13:11:06;;;;;;;6.57;4.10;;;;;;;;;;5013590;28;20401;-73
2021/01/23 13:13:32;;;;;;;5.93;2.50;;;;;;;;;;5012763;28;20848;-73
2021/01/23 13:15:58;;;;;;;3.23;2.27;;;;;;;;;;5013423;28;20444;-74
2021/01/23 13:18:24;;;;;;;3.13;2.27;;;;;;;;;;5012522;28;20451;-73
2021/01/23 13:20:50;;;;;;;3.37;2.83;;;;;;;;;;5012457;28;20780;-74
2021/01/23 13:23:16;;;;;;;4.27;3.60;;;;;;;;;;5012467;28;20525;-74
2021/01/23 13:25:43;;;;;;;3.97;2.80;;;;;;;;;;5013362;28;20414;-73
2021/01/23 13:28:09;;;;;;;3.30;2.70;;;;;;;;;;5012456;28;21019;-73
2021/01/23 13:30:36;;;;;;;4.07;2.73;;;;;;;;;;5013210;28;20526;-73
2021/01/23 13:33:04;;;;;;;3.80;2.00;;;;;;;;;;5011733;28;20471;-73
2021/01/23 13:35:30;;;;;;;3.87;3.20;;;;;;;;;;5013171;28;20405;-73
2021/01/23 13:37:56;;;;;;;5.20;3.00;;;;;;;;;;5012755;28;20416;-71
2021/01/23 13:40:22;;;;;;;4.57;3.00;;;;;;;;;;5012721;28;20805;-73
2021/01/23 13:42:48;;;;;;;6.53;5.10;;;;;;;;;;5016100;28;20501;-73
2021/01/23 13:45:14;;;;;;;3.97;3.17;;;;;;;;;;5016191;28;20468;-72
2021/01/23 13:47:40;;;;;;;5.10;2.63;;;;;;;;;;5016257;28;20408;-71
2021/01/23 13:50:06;;;;;;;3.70;2.73;;;;;;;;;;5015408;28;20468;-71
2021/01/23 13:52:32;;;;;;;11.60;8.07;;;;;;;;;;5016515;28;20417;-71
2021/01/23 13:54:58;;;;;;;5.40;3.20;;;;;;;;;;5014654;28;20433;-72
2021/01/23 13:57:24;;;;;;;7.23;6.10;;;;;;;;;;5016707;28;20624;-72
2021/01/23 13:59:50;;;;;;;8.00;5.03;;;;;;;;;;5014630;28;20866;-72
2021/01/23 14:02:16;;;;;;;4.20;3.00;;;;;;;;;;5016554;28;20446;-72
2021/01/23 14:04:42;;;;;;;4.57;2.80;;;;;;;;;;5015816;28;20522;-72
2021/01/23 14:07:08;;;;;;;4.40;3.17;;;;;;;;;;5016750;28;20457;-72
2021/01/23 14:09:34;;;;;;;4.93;3.70;;;;;;;;;;5015681;28;20505;-72
2021/01/23 14:12:00;;;;;;;5.53;3.87;;;;;;;;;;5016240;28;20479;-72
2021/01/23 14:14:27;;;;;;;21.77;13.67;;;;;;;;;;5015217;28;20958;-71
2021/01/23 14:16:53;;;;;;;8.20;5.83;;;;;;;;;;5016629;28;20747;-72
2021/01/23 14:19:19;;;;;;;5.47;3.20;;;;;;;;;;5015334;28;20880;-72
2021/01/23 14:21:45;;;;;;;6.80;3.30;;;;;;;;;;5016071;28;20455;-72
2021/01/23 14:24:11;;;;;;;4.77;2.43;;;;;;;;;;5007936;28;20469;-73
2021/01/23 14:26:37;;;;;;;2.97;2.30;;;;;;;;;;5001615;28;20514;-73
2021/01/23 14:29:03;;;;;;;4.20;3.13;;;;;;;;;;5015364;28;20466;-73
2021/01/23 14:31:29;;;;;;;6.67;2.87;;;;;;;;;;5016104;28;20407;-72
2021/01/23 14:33:55;;;;;;;4.47;2.73;;;;;;;;;;5015347;28;20968;-73
2021/01/23 14:36:21;;;;;;;6.80;3.20;;;;;;;;;;5016396;28;20415;-73
2021/01/23 14:38:47;;;;;;;7.23;3.33;;;;;;;;;;5015006;28;20553;-73
2021/01/23 14:41:13;;;;;;;3.13;2.30;;;;;;;;;;5016118;28;20401;-73
2021/01/23 14:43:39;;;;;;;3.90;3.23;;;;;;;;;;5015115;28;20457;-73